createdAt,value
2023-09-19T00:02:15.320Z,14.44
2023-09-19T00:04:50.722Z,14.30
2023-09-19T00:07:18.680Z,14.37
2023-09-19T00:09:53.933Z,14.41
2023-09-19T00:12:29.774Z,14.29
2023-09-19T00:15:11.159Z,14.20
2023-09-19T00:17:41.997Z,14.33
2023-09-19T00:20:35.190Z,14.35
2023-09-19T00:23:10.488Z,14.17
2023-09-19T00:25:48.629Z,14.23
2023-09-19T00:28:18.735Z,14.20
2023-09-19T00:30:59.725Z,14.27
2023-09-19T00:33:33.617Z,14.14
2023-09-19T00:36:12.535Z,14.24
2023-09-19T00:38:40.253Z,14.13
2023-09-19T00:44:01.841Z,14.16
2023-09-19T00:46:29.997Z,14.26
2023-09-19T00:51:49.302Z,14.16
2023-09-19T00:54:26.613Z,14.28
2023-09-19T00:56:56.029Z,14.28
2023-09-19T01:02:14.728Z,14.18
2023-09-19T01:04:51.682Z,14.18
2023-09-19T01:07:22.092Z,14.23
2023-09-19T01:09:56.553Z,14.23
2023-09-19T01:13:05.121Z,14.20
2023-09-19T01:15:49.112Z,14.18
2023-09-19T01:18:56.534Z,14.17
2023-09-19T01:21:58.668Z,14.05
2023-09-19T01:24:53.577Z,14.07
2023-09-19T01:28:05.644Z,14.10
2023-09-19T01:30:40.421Z,14.08
2023-09-19T01:33:18.675Z,14.01
2023-09-19T01:35:53.652Z,14.05
2023-09-19T01:38:28.610Z,14.06
2023-09-19T01:41:22.566Z,14.05
2023-09-19T01:43:51.964Z,13.93
2023-09-19T01:46:37.705Z,14.03
2023-09-19T01:49:45.173Z,14.04
2023-09-19T01:52:28.633Z,13.98
2023-09-19T01:55:22.930Z,13.89
2023-09-19T01:58:07.641Z,13.93
2023-09-19T02:00:48.630Z,13.85
2023-09-19T02:03:19.477Z,13.79
2023-09-19T02:06:01.581Z,13.87
2023-09-19T02:08:29.415Z,13.87
2023-09-19T02:11:03.528Z,13.87
2023-09-19T02:13:38.308Z,13.82
2023-09-19T02:16:12.932Z,13.86
2023-09-19T02:18:45.162Z,13.88
2023-09-19T02:21:20.705Z,13.85
2023-09-19T02:23:48.796Z,13.79
2023-09-19T02:26:26.552Z,13.84
2023-09-19T02:28:54.543Z,13.74
2023-09-19T02:31:28.695Z,13.70
2023-09-19T02:33:56.791Z,13.78
2023-09-19T02:36:31.651Z,13.83
2023-09-19T02:39:02.578Z,13.92
2023-09-19T02:41:30.898Z,13.93
2023-09-19T02:44:06.010Z,13.87
2023-09-19T02:46:39.715Z,13.89
2023-09-19T02:49:14.620Z,13.71
2023-09-19T02:51:42.245Z,13.78
2023-09-19T02:54:16.656Z,13.77
2023-09-19T02:56:46.745Z,13.82
2023-09-19T02:59:23.684Z,13.77
2023-09-19T03:01:51.450Z,13.67
2023-09-19T03:04:27.745Z,13.73
2023-09-19T03:07:00.131Z,13.58
2023-09-19T03:09:33.798Z,13.67
2023-09-19T03:12:08.263Z,13.54
2023-09-19T03:14:43.701Z,13.66
2023-09-19T03:17:11.454Z,13.49
2023-09-19T03:19:48.831Z,13.50
2023-09-19T03:22:19.631Z,13.52
2023-09-19T03:24:56.649Z,13.54
2023-09-19T03:27:30.664Z,13.64
2023-09-19T03:30:05.274Z,13.64
2023-09-19T03:32:41.712Z,13.64
2023-09-19T03:35:18.840Z,13.58
2023-09-19T03:37:46.588Z,13.48
2023-09-19T03:40:25.861Z,13.61
2023-09-19T03:43:04.655Z,13.42
2023-09-19T03:45:41.752Z,13.61
2023-09-19T03:51:12.707Z,13.60
2023-09-19T03:53:46.719Z,13.59
2023-09-19T03:56:16.630Z,13.57
2023-09-19T03:58:50.847Z,13.58
2023-09-19T04:01:22.853Z,13.39
2023-09-19T04:03:58.754Z,13.44
2023-09-19T04:06:32.712Z,13.33
2023-09-19T04:09:06.696Z,13.50
2023-09-19T04:11:54.221Z,13.30
2023-09-19T04:17:12.883Z,13.42
2023-09-19T04:22:28.295Z,13.31
2023-09-19T04:27:43.963Z,13.03
2023-09-19T04:33:25.120Z,13.18
2023-09-19T04:36:33.711Z,13.17
2023-09-19T04:38:53.307Z,12.99
2023-09-19T04:41:29.766Z,12.97
2023-09-19T04:43:57.534Z,12.97
2023-09-19T04:46:33.860Z,12.87
2023-09-19T04:51:54.702Z,12.95
2023-09-19T04:54:23.456Z,12.75
2023-09-19T04:56:58.597Z,12.85
2023-09-19T04:59:30.318Z,12.84
2023-09-19T05:04:49.817Z,12.96
2023-09-19T05:07:24.720Z,12.90
2023-09-19T05:09:58.817Z,12.96
2023-09-19T05:12:36.302Z,12.95
2023-09-19T05:15:21.173Z,12.89
2023-09-19T05:17:59.314Z,12.83
2023-09-19T05:23:29.927Z,12.77
2023-09-19T05:26:06.645Z,12.84
2023-09-19T05:28:35.828Z,12.93
2023-09-19T05:31:12.849Z,12.93
2023-09-19T05:33:40.296Z,12.80
2023-09-19T05:36:14.698Z,12.91
2023-09-19T05:38:46.181Z,12.81
2023-09-19T05:41:21.874Z,12.77
2023-09-19T05:43:51.969Z,12.90
2023-09-19T05:46:25.818Z,12.72
2023-09-19T05:48:53.554Z,12.72
2023-09-19T05:51:30.770Z,12.92
2023-09-19T05:53:58.891Z,12.85
2023-09-19T05:56:32.663Z,12.98
2023-09-19T05:59:02.803Z,12.96
2023-09-19T06:01:36.865Z,12.96
2023-09-19T06:04:14.770Z,12.95
2023-09-19T06:06:51.754Z,12.90
2023-09-19T06:09:25.811Z,13.07
2023-09-19T06:12:04.828Z,13.05
2023-09-19T06:14:45.712Z,13.13
2023-09-19T06:17:15.753Z,13.25
2023-09-19T06:19:54.857Z,13.12
2023-09-19T06:22:23.350Z,13.09
2023-09-19T06:24:59.869Z,13.24
2023-09-19T06:27:27.385Z,13.18
2023-09-19T06:30:02.213Z,12.96
2023-09-19T06:32:30.381Z,13.14
2023-09-19T06:35:01.334Z,13.15
2023-09-19T06:37:44.686Z,13.02
2023-09-19T06:40:25.925Z,13.16
2023-09-19T06:43:03.862Z,12.96
2023-09-19T06:45:40.950Z,13.08
2023-09-19T06:48:14.655Z,13.05
2023-09-19T06:50:55.860Z,13.23
2023-09-19T06:53:25.303Z,13.08
2023-09-19T06:56:00.092Z,13.23
2023-09-19T06:58:27.398Z,13.29
2023-09-19T07:01:04.929Z,13.30
2023-09-19T07:03:35.024Z,13.50
2023-09-19T07:06:04.782Z,13.62
2023-09-19T07:08:41.767Z,13.52
2023-09-19T07:11:17.170Z,13.58
2023-09-19T07:13:59.740Z,13.60
2023-09-19T07:16:32.160Z,13.73
2023-09-19T07:19:08.727Z,13.84
2023-09-19T07:21:40.257Z,13.98
2023-09-19T07:24:23.387Z,13.88
2023-09-19T07:26:54.581Z,14.06
2023-09-19T07:29:28.769Z,14.10
2023-09-19T07:31:56.179Z,14.15
2023-09-19T07:34:33.180Z,14.02
2023-09-19T07:37:04.294Z,14.11
2023-09-19T07:39:32.935Z,14.28
2023-09-19T07:42:06.898Z,14.43
2023-09-19T07:44:34.971Z,14.50
2023-09-19T07:47:13.220Z,14.55
2023-09-19T07:49:50.872Z,14.63
2023-09-19T07:52:26.079Z,14.49
2023-09-19T07:55:03.008Z,14.60
2023-09-19T07:57:30.654Z,14.74
2023-09-19T07:59:58.651Z,14.81
2023-09-19T08:02:32.887Z,14.61
2023-09-19T08:05:04.509Z,14.80
2023-09-19T08:07:41.105Z,14.95
2023-09-19T08:10:20.802Z,14.82
2023-09-19T08:13:06.829Z,14.97
2023-09-19T08:15:48.165Z,14.89
2023-09-19T08:18:24.168Z,15.12
2023-09-19T08:20:53.610Z,15.16
2023-09-19T08:23:27.897Z,15.17
2023-09-19T08:25:59.865Z,15.01
2023-09-19T08:28:34.023Z,15.24
2023-09-19T08:31:19.224Z,15.14
2023-09-19T08:33:58.118Z,15.40
2023-09-19T08:36:28.717Z,15.28
2023-09-19T08:39:07.862Z,15.56
2023-09-19T08:41:43.172Z,15.61
2023-09-19T08:44:21.328Z,15.52
2023-09-19T08:46:57.868Z,15.66
2023-09-19T08:49:47.841Z,15.66
2023-09-19T08:52:31.854Z,15.89
2023-09-19T08:55:12.929Z,16.07
2023-09-19T08:57:50.659Z,16.14
2023-09-19T09:00:29.399Z,16.14
2023-09-19T09:03:05.334Z,16.35
2023-09-19T09:05:38.765Z,16.41
2023-09-19T09:08:18.939Z,16.32
2023-09-19T09:10:52.994Z,16.47
2023-09-19T09:13:29.296Z,16.55
2023-09-19T09:16:13.191Z,16.63
2023-09-19T09:18:48.084Z,16.75
2023-09-19T09:21:20.796Z,16.73
2023-09-19T09:23:55.178Z,16.81
2023-09-19T09:26:40.785Z,17.01
2023-09-19T09:29:21.526Z,17.08
2023-09-19T09:31:52.155Z,17.10
2023-09-19T09:34:30.009Z,16.89
2023-09-19T09:36:57.910Z,17.10
2023-09-19T09:39:40.875Z,17.08
2023-09-19T09:42:11.734Z,17.25
2023-09-19T09:44:51.857Z,17.25
2023-09-19T09:47:57.277Z,17.30
2023-09-19T09:50:36.991Z,17.44
2023-09-19T09:53:08.974Z,17.54
2023-09-19T09:56:07.991Z,17.84
2023-09-19T09:58:42.036Z,17.76
2023-09-19T10:01:25.638Z,17.96
2023-09-19T10:04:00.322Z,18.15
2023-09-19T10:06:35.032Z,18.36
2023-09-19T10:09:21.927Z,18.49
2023-09-19T10:12:09.960Z,18.52
2023-09-19T10:14:48.852Z,18.15
2023-09-19T10:17:29.823Z,18.54
2023-09-19T10:20:02.596Z,18.51
2023-09-19T10:22:40.058Z,18.57
2023-09-19T10:25:10.492Z,18.86
2023-09-19T10:27:48.378Z,18.81
2023-09-19T10:30:19.715Z,18.94
2023-09-19T10:33:02.095Z,18.74
2023-09-19T10:35:46.308Z,18.59
2023-09-19T10:38:30.250Z,18.33
2023-09-19T10:41:02.713Z,18.27
2023-09-19T10:43:46.223Z,18.33
2023-09-19T10:46:14.418Z,18.32
2023-09-19T10:48:51.979Z,18.51
2023-09-19T10:51:31.897Z,18.27
2023-09-19T10:54:26.237Z,18.35
2023-09-19T10:56:54.917Z,18.34
2023-09-19T10:59:29.895Z,18.44
2023-09-19T11:02:03.020Z,18.55
2023-09-19T11:04:47.110Z,18.85
2023-09-19T11:07:17.371Z,18.67
2023-09-19T11:09:56.286Z,18.87
2023-09-19T11:12:42.433Z,18.95
2023-09-19T11:16:17.165Z,19.03
2023-09-19T11:18:50.323Z,19.06
2023-09-19T11:21:51.066Z,18.82
2023-09-19T11:24:32.982Z,18.99
2023-09-19T11:27:26.006Z,18.75
2023-09-19T11:30:29.014Z,18.85
2023-09-19T11:33:44.983Z,19.08
2023-09-19T11:36:29.950Z,19.11
2023-09-19T11:38:57.294Z,19.13
2023-09-19T11:41:33.888Z,19.07
2023-09-19T11:44:05.903Z,19.01
2023-09-19T11:46:46.827Z,19.08
2023-09-19T11:49:40.697Z,18.88
2023-09-19T11:52:32.045Z,18.92
2023-09-19T11:55:06.326Z,18.60
2023-09-19T11:57:43.970Z,18.57
2023-09-19T12:00:19.960Z,18.72
2023-09-19T12:03:04.160Z,18.79
2023-09-19T12:05:34.772Z,18.90
2023-09-19T12:08:09.115Z,18.80
2023-09-19T12:11:12.114Z,18.78
2023-09-19T12:13:58.153Z,18.82
2023-09-19T12:16:26.159Z,18.91
2023-09-19T12:19:02.219Z,18.81
2023-09-19T12:21:38.165Z,18.69
2023-09-19T12:24:13.193Z,18.62
2023-09-19T12:26:53.577Z,18.34
2023-09-19T12:29:29.033Z,18.37
2023-09-19T12:32:08.260Z,18.50
2023-09-19T12:34:44.131Z,18.42
2023-09-19T12:37:29.416Z,18.89
2023-09-19T12:40:31.138Z,19.31
2023-09-19T12:43:08.647Z,19.47
2023-09-19T12:45:47.882Z,19.57
2023-09-19T12:48:33.865Z,19.60
2023-09-19T12:51:18.002Z,19.44
2023-09-19T12:53:47.098Z,19.31
2023-09-19T12:56:31.123Z,19.27
2023-09-19T12:59:11.120Z,19.41
2023-09-19T13:01:54.138Z,19.68
2023-09-19T13:04:31.439Z,19.80
2023-09-19T13:07:09.222Z,19.99
2023-09-19T13:09:37.188Z,19.87
2023-09-19T13:12:12.142Z,20.16
2023-09-19T13:14:55.143Z,19.84
2023-09-19T13:17:31.090Z,19.73
2023-09-19T13:20:07.454Z,19.28
2023-09-19T13:23:02.146Z,19.09
2023-09-19T13:25:32.142Z,19.14
2023-09-19T13:28:07.318Z,19.01
2023-09-19T13:30:54.401Z,18.74
2023-09-19T13:33:32.161Z,18.66
2023-09-19T13:36:18.047Z,18.53
2023-09-19T13:38:48.223Z,18.50
2023-09-19T13:41:27.891Z,18.63
2023-09-19T13:43:57.372Z,18.38
2023-09-19T13:46:34.307Z,18.48
2023-09-19T13:49:11.321Z,18.42
2023-09-19T13:51:53.821Z,18.43
2023-09-19T13:54:22.380Z,18.43
2023-09-19T13:57:00.212Z,18.33
2023-09-19T13:59:37.386Z,18.37
2023-09-19T14:02:05.940Z,18.45
2023-09-19T14:04:42.363Z,18.31
2023-09-19T14:07:20.321Z,18.52
2023-09-19T14:09:48.595Z,18.36
2023-09-19T14:12:42.261Z,18.48
2023-09-19T14:15:25.635Z,18.58
2023-09-19T14:18:04.421Z,18.57
2023-09-19T14:20:41.349Z,18.38
2023-09-19T14:23:11.619Z,18.32
2023-09-19T14:25:49.329Z,18.31
2023-09-19T14:28:23.367Z,18.28
2023-09-19T14:30:51.341Z,18.45
2023-09-19T14:33:28.308Z,18.43
2023-09-19T14:35:56.483Z,18.20
2023-09-19T14:38:34.615Z,18.31
2023-09-19T14:41:08.661Z,18.19
2023-09-19T14:43:43.371Z,18.40
2023-09-19T14:46:20.512Z,18.23
2023-09-19T14:48:57.720Z,18.28
2023-09-19T14:51:25.372Z,18.39
2023-09-19T14:54:00.229Z,18.49
2023-09-19T14:56:34.338Z,18.72
2023-09-19T14:59:02.092Z,18.58
2023-09-19T15:01:37.415Z,18.84
2023-09-19T15:04:12.312Z,18.78
2023-09-19T15:06:49.254Z,18.75
2023-09-19T15:09:23.549Z,18.78
2023-09-19T15:11:57.247Z,18.94
2023-09-19T15:14:38.624Z,19.09
2023-09-19T15:17:13.270Z,18.98
2023-09-19T15:19:44.341Z,18.88
2023-09-19T15:22:19.246Z,18.80
2023-09-19T15:24:46.856Z,18.79
2023-09-19T15:27:21.508Z,18.88
2023-09-19T15:29:49.318Z,18.75
2023-09-19T15:32:23.358Z,18.73
2023-09-19T15:34:53.949Z,18.60
2023-09-19T15:37:28.400Z,18.74
2023-09-19T15:39:56.400Z,18.49
2023-09-19T15:42:30.247Z,18.53
2023-09-19T15:44:57.718Z,18.70
2023-09-19T15:47:32.326Z,18.56
2023-09-19T15:50:01.795Z,18.47
2023-09-19T15:52:36.314Z,18.50
2023-09-19T15:55:08.877Z,18.58
2023-09-19T15:57:46.356Z,18.57
2023-09-19T16:00:25.342Z,18.38
2023-09-19T16:02:59.331Z,18.33
2023-09-19T16:05:43.651Z,18.51
2023-09-19T16:08:25.288Z,18.37
2023-09-19T16:10:56.081Z,18.43
2023-09-19T16:13:34.057Z,18.36
2023-09-19T16:16:11.367Z,18.30
2023-09-19T16:18:40.000Z,18.36
2023-09-19T16:21:19.300Z,18.18
2023-09-19T16:23:48.140Z,18.21
2023-09-19T16:26:22.320Z,18.32
2023-09-19T16:29:12.274Z,18.21
2023-09-19T16:31:47.773Z,18.23
2023-09-19T16:34:22.475Z,18.15
2023-09-19T16:36:50.651Z,18.12
2023-09-19T16:39:18.592Z,18.20
2023-09-19T16:41:53.489Z,18.14
2023-09-19T16:44:29.556Z,18.17
2023-09-19T16:47:04.561Z,18.01
2023-09-19T16:49:35.394Z,17.98
2023-09-19T16:52:05.765Z,18.05
2023-09-19T16:54:46.373Z,17.93
2023-09-19T16:57:17.138Z,17.99
2023-09-19T16:59:57.463Z,18.10
2023-09-19T17:02:36.705Z,17.85
2023-09-19T17:05:11.779Z,18.07
2023-09-19T17:07:47.327Z,17.91
2023-09-19T17:10:16.690Z,18.04
2023-09-19T17:12:51.199Z,17.91
2023-09-19T17:15:36.142Z,17.85
2023-09-19T17:18:10.437Z,17.82
2023-09-19T17:20:49.302Z,17.84
2023-09-19T17:23:19.979Z,18.01
2023-09-19T17:25:57.413Z,17.82
2023-09-19T17:28:25.644Z,17.83
2023-09-19T17:31:02.468Z,17.78
2023-09-19T17:33:37.481Z,17.98
2023-09-19T17:36:16.653Z,17.81
2023-09-19T17:38:53.516Z,17.81
2023-09-19T17:41:24.737Z,17.79
2023-09-19T17:44:08.791Z,17.93
2023-09-19T17:46:37.957Z,17.80
2023-09-19T17:49:12.396Z,17.76
2023-09-19T17:51:49.346Z,17.89
2023-09-19T17:54:17.386Z,17.76
2023-09-19T17:56:52.510Z,17.78
2023-09-19T17:59:21.005Z,17.72
2023-09-19T18:01:56.496Z,17.94
2023-09-19T18:04:31.384Z,17.72
2023-09-19T18:07:08.398Z,17.90
2023-09-19T18:09:39.248Z,17.70
2023-09-19T18:12:20.688Z,17.77
2023-09-19T18:14:54.831Z,17.91
2023-09-19T18:17:29.778Z,17.73
2023-09-19T18:19:59.091Z,17.77
2023-09-19T18:22:35.555Z,17.70
2023-09-19T18:25:08.755Z,17.78
2023-09-19T18:27:47.493Z,17.80
2023-09-19T18:30:19.305Z,17.67
2023-09-19T18:32:47.206Z,17.70
2023-09-19T18:35:24.417Z,17.92
2023-09-19T18:38:03.436Z,17.69
2023-09-19T18:40:38.772Z,17.90
2023-09-19T18:43:13.545Z,17.78
2023-09-19T18:45:55.986Z,17.88
2023-09-19T18:48:30.435Z,17.65
2023-09-19T18:51:11.546Z,17.66
2023-09-19T18:53:41.748Z,17.73
2023-09-19T18:56:23.606Z,17.59
2023-09-19T18:58:58.543Z,17.58
2023-09-19T19:01:41.059Z,17.57
2023-09-19T19:04:17.543Z,17.61
2023-09-19T19:06:48.644Z,17.55
2023-09-19T19:09:23.590Z,17.53
2023-09-19T19:11:58.657Z,17.40
2023-09-19T19:14:40.421Z,17.43
2023-09-19T19:17:08.435Z,17.53
2023-09-19T19:19:42.477Z,17.39
2023-09-19T19:22:10.385Z,17.28
2023-09-19T19:24:50.458Z,17.25
2023-09-19T19:27:24.553Z,17.27
2023-09-19T19:29:52.512Z,17.27
2023-09-19T19:32:28.927Z,17.28
2023-09-19T19:34:57.116Z,17.27
2023-09-19T19:37:31.590Z,17.36
2023-09-19T19:40:01.311Z,17.24
2023-09-19T19:42:36.666Z,17.26
2023-09-19T19:45:05.032Z,17.43
2023-09-19T19:47:39.533Z,17.21
2023-09-19T19:50:09.428Z,17.40
2023-09-19T19:52:43.960Z,17.15
2023-09-19T19:55:20.777Z,17.35
2023-09-19T19:58:01.639Z,17.32
2023-09-19T20:00:42.098Z,17.24
2023-09-19T20:03:17.084Z,17.28
2023-09-19T20:05:45.700Z,17.14
2023-09-19T20:08:24.348Z,17.03
2023-09-19T20:10:52.639Z,17.07
2023-09-19T20:13:39.877Z,16.99
2023-09-19T20:16:23.521Z,16.98
2023-09-19T20:19:01.529Z,16.90
2023-09-19T20:21:32.939Z,16.92
2023-09-19T20:24:14.469Z,16.85
2023-09-19T20:26:42.311Z,16.81
2023-09-19T20:29:18.522Z,16.85
2023-09-19T20:31:56.030Z,16.78
2023-09-19T20:34:33.536Z,16.76
2023-09-19T20:37:14.673Z,16.86
2023-09-19T20:39:48.477Z,16.77
2023-09-19T20:42:27.137Z,17.02
2023-09-19T20:44:57.132Z,16.96
2023-09-19T20:47:35.662Z,16.96
2023-09-19T20:50:06.349Z,16.90
2023-09-19T20:52:46.700Z,17.02
2023-09-19T20:55:17.160Z,17.09
2023-09-19T21:00:21.986Z,17.06
2023-09-19T21:03:00.709Z,17.19
2023-09-19T21:05:28.702Z,17.16
2023-09-19T21:08:08.520Z,17.19
2023-09-19T21:10:43.464Z,17.32
2023-09-19T21:13:35.075Z,17.21
2023-09-19T21:16:12.662Z,17.34
2023-09-19T21:18:50.807Z,17.13
2023-09-19T21:21:25.352Z,17.33
2023-09-19T21:24:00.486Z,17.13
2023-09-19T21:26:31.631Z,17.14
2023-09-19T21:29:05.444Z,17.28
2023-09-19T21:31:37.243Z,17.15
2023-09-19T21:34:13.473Z,17.35
2023-09-19T21:36:41.707Z,17.13
2023-09-19T21:39:19.317Z,17.11
2023-09-19T21:41:50.046Z,17.27
2023-09-19T21:44:31.529Z,17.09
2023-09-19T21:47:00.351Z,17.22
2023-09-19T21:49:34.380Z,17.14
2023-09-19T21:52:11.107Z,17.13
2023-09-19T21:54:45.656Z,17.23
2023-09-19T21:57:13.460Z,17.36
2023-09-19T21:59:52.612Z,17.37
2023-09-19T22:02:29.257Z,17.32
2023-09-19T22:05:05.160Z,17.32
2023-09-19T22:07:39.763Z,17.15
2023-09-19T22:10:14.661Z,17.21
2023-09-19T22:12:49.620Z,17.15
2023-09-19T22:15:25.078Z,17.13
2023-09-19T22:18:04.719Z,17.15
2023-09-19T22:20:32.804Z,17.11
2023-09-19T22:23:15.060Z,17.12
2023-09-19T22:25:43.482Z,17.32
2023-09-19T22:28:23.660Z,17.09
2023-09-19T22:30:51.342Z,17.10
2023-09-19T22:33:25.534Z,17.19
2023-09-19T22:36:05.774Z,17.15
2023-09-19T22:38:38.751Z,17.13
2023-09-19T22:41:21.059Z,17.19
2023-09-19T22:43:59.798Z,17.20
2023-09-19T22:46:30.470Z,17.23
2023-09-19T22:51:54.635Z,17.36
2023-09-19T22:54:36.616Z,17.36
2023-09-19T22:57:06.751Z,17.21
2023-09-19T22:59:44.102Z,17.13
2023-09-19T23:02:15.484Z,17.13
2023-09-19T23:04:54.667Z,17.08
2023-09-19T23:07:37.331Z,17.10
2023-09-19T23:10:16.528Z,17.03
2023-09-19T23:12:50.766Z,17.08
2023-09-19T23:15:38.629Z,17.27
2023-09-19T23:18:19.721Z,17.16
2023-09-19T23:20:47.566Z,17.12
2023-09-19T23:23:26.243Z,17.16
2023-09-19T23:26:15.892Z,17.08
2023-09-19T23:28:49.649Z,17.05
2023-09-19T23:31:23.767Z,17.05
2023-09-19T23:33:54.722Z,17.27
2023-09-19T23:36:32.774Z,17.11
2023-09-19T23:39:00.760Z,17.08
2023-09-19T23:41:32.266Z,17.28
2023-09-19T23:44:06.617Z,17.17
2023-09-19T23:46:41.456Z,17.05
2023-09-19T23:49:18.534Z,17.24
2023-09-19T23:51:52.433Z,17.27
2023-09-19T23:54:29.241Z,17.31
2023-09-19T23:57:03.657Z,17.31
2023-09-19T23:59:40.756Z,17.18
